Time;durP1;ratioP1;P1;durP2;ratioP2;P2;SDS_P1;SDS_P2;PMS_P1;PMS_P2;Temp;Humidity;BMP_temperature;BMP_pressure;BME280_temperature;BME280_humidity;BME280_pressure;Samples;Min_cycle;Max_cycle;Signal;HPM_P1;HPM_P2
2021/05/27 04:59:20;;;;;;;10.95;9.53;;;;;;;18.40;86.83;100382.65;1842969;77;22808;-65
2021/05/27 05:01:48;;;;;;;11.80;10.80;;;;;;;18.47;86.60;100381.18;1812171;79;21457;-65
2021/05/27 05:04:15;;;;;;;11.85;10.72;;;;;;;18.61;86.00;100370.35;1799963;77;21116;-65
2021/05/27 05:06:43;;;;;;;11.20;10.30;;;;;;;18.75;85.44;100373.16;1778219;77;21042;-64
2021/05/27 05:09:11;;;;;;;11.18;10.20;;;;;;;18.93;85.09;100371.56;1747760;77;21003;-64
2021/05/27 05:11:39;;;;;;;10.53;9.63;;;;;;;19.20;84.65;100373.14;1786337;77;20943;-65
2021/05/27 05:14:06;;;;;;;9.93;9.05;;;;;;;19.60;82.78;100374.47;1788853;77;20927;-64
2021/05/27 05:16:35;;;;;;;10.75;8.28;;;;;;;20.16;80.85;100376.50;1795897;79;21590;-64
2021/05/27 05:19:04;;;;;;;10.93;9.00;;;;;;;20.75;78.19;100379.95;1723314;82;21019;-64
2021/05/27 05:21:31;;;;;;;12.20;8.88;;;;;;;21.41;75.53;100379.37;1737958;82;21008;-66
2021/05/27 05:24:06;;;;;;;9.13;8.33;;;;;;;21.97;72.24;100378.34;1726094;82;21023;-64
2021/05/27 05:26:38;;;;;;;10.63;6.83;;;;;;;22.42;69.90;100378.73;1731620;81;21022;-65
2021/05/27 05:29:12;;;;;;;7.62;7.03;;;;;;;22.93;67.62;100368.17;1734807;80;21095;-64
2021/05/27 05:31:42;;;;;;;9.25;7.50;;;;;;;23.57;64.75;100368.16;1730622;80;21087;-65
2021/05/27 05:34:11;;;;;;;7.67;7.00;;;;;;;24.15;62.99;100375.73;1738678;80;21625;-65
2021/05/27 05:36:41;;;;;;;7.30;6.70;;;;;;;24.56;60.04;100372.09;1736420;80;21095;-66
2021/05/27 05:39:10;;;;;;;7.40;6.70;;;;;;;24.59;59.93;100364.27;1713302;81;21025;-66
2021/05/27 05:41:41;;;;;;;8.58;7.15;;;;;;;24.85;59.02;100369.37;1737436;80;21213;-66
2021/05/27 05:44:13;;;;;;;6.55;6.03;;;;;;;25.27;57.18;100362.44;1743603;80;20992;-68
2021/05/27 05:46:42;;;;;;;6.92;5.85;;;;;;;25.58;55.57;100358.48;1736570;80;20991;-68
2021/05/27 05:49:13;;;;;;;6.53;5.90;;;;;;;25.74;54.75;100360.23;1743060;80;22446;-68
2021/05/27 05:51:42;;;;;;;7.55;6.90;;;;;;;25.63;54.00;100362.75;1740007;80;20980;-67
2021/05/27 05:54:09;;;;;;;7.22;6.58;;;;;;;25.52;54.94;100360.00;1744752;80;21012;-65
2021/05/27 05:56:36;;;;;;;7.20;6.50;;;;;;;25.68;55.16;100368.43;1729663;80;20980;-64
2021/05/27 05:59:04;;;;;;;7.25;6.05;;;;;;;26.05;55.18;100359.67;1725512;80;21123;-64
2021/05/27 06:01:31;;;;;;;6.37;5.87;;;;;;;26.27;54.21;100355.34;1780892;78;21664;-66
2021/05/27 06:03:59;;;;;;;7.35;6.65;;;;;;;26.21;53.32;100353.39;1712789;81;21024;-65
2021/05/27 06:06:32;;;;;;;6.92;5.60;;;;;;;25.93;53.80;100358.95;1787914;78;22211;-65
2021/05/27 06:09:05;;;;;;;7.55;6.42;;;;;;;25.55;54.53;100356.99;1792927;79;20936;-66
2021/05/27 06:11:32;;;;;;;7.25;6.50;;;;;;;25.15;55.23;100359.84;1784835;79;21660;-67
2021/05/27 06:14:00;;;;;;;7.45;6.75;;;;;;;24.76;56.12;100365.09;1785595;79;20995;-67
2021/05/27 06:16:27;;;;;;;8.38;7.53;;;;;;;24.41;57.30;100363.11;1792873;79;22569;-65
2021/05/27 06:18:54;;;;;;;7.33;6.62;;;;;;;24.11;58.13;100362.42;1786403;79;21810;-67
2021/05/27 06:21:23;;;;;;;8.18;7.30;;;;;;;23.84;58.80;100358.24;1778598;79;21078;-68
2021/05/27 06:23:52;;;;;;;8.20;7.40;;;;;;;23.62;59.70;100362.34;1784344;79;20977;-70
2021/05/27 06:26:20;;;;;;;8.38;7.30;;;;;;;23.50;60.15;100359.63;1782725;79;20991;-69
2021/05/27 06:28:47;;;;;;;11.55;7.22;;;;;;;23.42;60.71;100360.43;1783250;78;21058;-65
2021/05/27 06:31:16;;;;;;;8.55;6.45;;;;;;;23.38;61.13;100355.09;1784554;78;21920;-67
2021/05/27 06:33:45;;;;;;;9.30;6.92;;;;;;;23.42;61.18;100354.28;1780739;79;21003;-65
2021/05/27 06:36:12;;;;;;;7.40;6.70;;;;;;;23.53;61.17;100358.84;1787734;79;20983;-66
2021/05/27 06:38:40;;;;;;;7.95;7.30;;;;;;;23.65;60.98;100358.02;1789931;79;21031;-66
2021/05/27 06:41:07;;;;;;;7.62;6.83;;;;;;;23.77;60.47;100357.23;1788612;79;21034;-63
2021/05/27 06:43:36;;;;;;;7.85;7.15;;;;;;;23.82;60.30;100365.05;1787722;79;21735;-69
2021/05/27 06:46:03;;;;;;;7.65;6.90;;;;;;;23.77;60.05;100357.23;1781397;78;21647;-68
2021/05/27 06:48:32;;;;;;;7.40;6.70;;;;;;;23.72;60.09;100356.88;1780387;79;20979;-65
2021/05/27 06:50:59;;;;;;;7.30;6.60;;;;;;;23.68;60.10;100363.02;1780764;79;21016;-67
2021/05/27 06:53:26;;;;;;;8.73;7.17;;;;;;;23.67;60.35;100353.38;1789636;78;21506;-66
2021/05/27 06:55:54;;;;;;;10.72;8.50;;;;;;;23.75;60.37;100357.39;1785188;78;21943;-66
2021/05/27 06:58:21;;;;;;;8.10;7.30;;;;;;;23.90;59.53;100363.75;1772676;79;20999;-70
2021/05/27 07:00:48;;;;;;;7.92;6.97;;;;;;;24.02;58.89;100355.42;1774911;79;20988;-67
2021/05/27 07:03:18;;;;;;;8.45;7.75;;;;;;;24.10;58.86;100358.93;1782794;79;21561;-68
2021/05/27 07:05:46;;;;;;;11.28;6.62;;;;;;;24.32;58.74;100356.65;1788626;79;20953;-66
2021/05/27 07:08:14;;;;;;;6.95;6.33;;;;;;;24.67;57.97;100356.27;1786695;79;21131;-65
2021/05/27 07:10:41;;;;;;;7.12;6.53;;;;;;;24.98;56.96;100356.39;1789447;79;21106;-65
2021/05/27 07:13:08;;;;;;;9.75;7.90;;;;;;;25.11;56.18;100357.19;1778626;79;21600;-65
2021/05/27 07:15:36;;;;;;;9.68;8.45;;;;;;;25.07;55.63;100362.03;1771059;79;21027;-65
2021/05/27 07:18:05;;;;;;;9.55;7.10;;;;;;;24.99;55.68;100358.55;1774274;79;21007;-65
2021/05/27 07:20:37;;;;;;;7.17;6.58;;;;;;;24.91;55.73;100353.55;1773969;79;21055;-65
2021/05/27 07:23:11;;;;;;;8.65;6.60;;;;;;;24.85;55.60;100351.56;1773305;79;20964;-68
2021/05/27 07:25:44;;;;;;;8.10;6.20;;;;;;;24.92;55.42;100344.55;1753174;79;21035;-66
2021/05/27 07:28:15;;;;;;;6.92;6.17;;;;;;;25.19;55.06;100342.51;1774349;79;21039;-66
2021/05/27 07:30:43;;;;;;;7.40;5.97;;;;;;;25.46;54.04;100341.20;1751068;79;20999;-71
2021/05/27 07:33:11;;;;;;;6.55;5.58;;;;;;;25.71;53.23;100338.74;1770667;79;21835;-69
2021/05/27 07:35:38;;;;;;;7.12;6.45;;;;;;;25.98;52.42;100340.58;1775042;79;21644;-69
2021/05/27 07:38:09;;;;;;;7.72;6.90;;;;;;;26.15;51.57;100336.75;1787372;79;20928;-73
2021/05/27 07:40:36;;;;;;;6.35;5.85;;;;;;;26.29;51.70;100332.48;1778474;79;21047;-70
2021/05/27 07:43:04;;;;;;;7.30;6.60;;;;;;;26.32;50.86;100340.16;1775096;79;21062;-69
2021/05/27 07:45:32;;;;;;;6.65;6.10;;;;;;;26.33;50.87;100340.48;1762056;79;21090;-68
2021/05/27 07:48:00;;;;;;;7.17;6.55;;;;;;;26.33;50.91;100337.31;1766989;79;21062;-68
2021/05/27 07:50:28;;;;;;;8.83;6.30;;;;;;;26.27;50.55;100343.84;1786911;79;21019;-67
2021/05/27 07:52:59;;;;;;;8.85;7.25;;;;;;;26.10;51.42;100335.13;1772955;79;20987;-67
2021/05/27 07:55:28;;;;;;;7.12;6.30;;;;;;;26.02;51.81;100336.02;1776323;79;20877;-70
2021/05/27 07:57:56;;;;;;;6.90;6.12;;;;;;;25.97;51.64;100340.25;1778602;79;21715;-71
2021/05/27 08:00:26;;;;;;;8.70;5.95;;;;;;;25.90;51.61;100346.30;1777334;78;21032;-69
2021/05/27 08:02:57;;;;;;;8.83;6.20;;;;;;;25.87;51.88;100347.16;1777210;78;21238;-75
2021/05/27 08:05:28;;;;;;;6.42;5.92;;;;;;;25.87;51.42;100337.31;1769671;79;21502;-73
2021/05/27 08:07:55;;;;;;;6.03;5.45;;;;;;;25.94;51.47;100336.60;1776624;78;21098;-68
2021/05/27 08:10:23;;;;;;;9.10;5.58;;;;;;;26.10;51.01;100337.28;1784511;78;21083;-71
2021/05/27 08:12:50;;;;;;;10.85;5.70;;;;;;;26.34;50.70;100330.96;1779064;78;21007;-68
2021/05/27 08:15:19;;;;;;;6.10;5.47;;;;;;;26.61;50.28;100336.20;1774754;78;20964;-73
2021/05/27 08:17:48;;;;;;;5.92;4.97;;;;;;;26.93;49.64;100324.31;1710085;81;21087;-70
2021/05/27 08:20:16;;;;;;;8.25;5.12;;;;;;;27.33;48.83;100319.00;1723267;80;22064;-65
2021/05/27 08:22:45;;;;;;;6.90;5.33;;;;;;;27.77;47.71;100318.89;1700755;80;21413;-65
2021/05/27 08:25:15;;;;;;;6.55;4.75;;;;;;;28.21;46.14;100315.20;1723953;80;21012;-65
2021/05/27 08:27:43;;;;;;;5.00;4.22;;;;;;;28.43;45.59;100307.42;1731885;80;21075;-65
2021/05/27 08:30:11;;;;;;;7.05;5.15;;;;;;;28.58;44.50;100307.33;1724652;82;21645;-64
2021/05/27 08:32:38;;;;;;;5.80;4.65;;;;;;;28.60;43.59;100307.97;1782508;79;20968;-68
2021/05/27 08:35:07;;;;;;;5.40;4.47;;;;;;;28.50;43.73;100305.63;1783292;79;21700;-68
2021/05/27 08:37:34;;;;;;;7.67;4.80;;;;;;;28.42;44.14;100300.41;1778325;79;20985;-65
2021/05/27 08:40:05;;;;;;;6.80;4.47;;;;;;;28.54;44.53;100301.53;1779206;79;20944;-70
2021/05/27 08:42:35;;;;;;;4.25;3.95;;;;;;;28.73;43.30;100291.97;1776225;79;21509;-69
2021/05/27 08:45:07;;;;;;;4.17;3.87;;;;;;;28.84;42.44;100290.59;1783476;79;20937;-67
2021/05/27 08:47:34;;;;;;;6.33;4.72;;;;;;;28.93;42.98;100297.45;1780893;79;21052;-65
2021/05/27 08:50:03;;;;;;;5.50;4.17;;;;;;;29.03;41.92;100299.27;1775364;79;21031;-67
2021/05/27 08:52:30;;;;;;;4.42;4.03;;;;;;;28.79;42.30;100305.90;1780577;79;20988;-67
2021/05/27 08:54:59;;;;;;;4.60;4.20;;;;;;;28.67;42.99;100306.16;1778832;79;21490;-66
2021/05/27 08:57:26;;;;;;;7.03;5.08;;;;;;;28.66;43.07;100303.16;1776660;79;20940;-65
2021/05/27 08:59:56;;;;;;;6.12;5.50;;;;;;;28.59;43.47;100303.62;1783218;79;21084;-64
2021/05/27 09:02:27;;;;;;;5.50;4.22;;;;;;;28.29;43.94;100304.86;1763336;79;21497;-68
2021/05/27 09:04:54;;;;;;;5.75;4.12;;;;;;;28.01;44.53;100304.28;1779530;79;20995;-65
2021/05/27 09:07:26;;;;;;;9.18;5.28;;;;;;;28.03;45.11;100299.56;1777922;79;21098;-69
2021/05/27 09:09:56;;;;;;;3.95;3.65;;;;;;;28.22;44.53;100284.73;1767190;78;21675;-68
2021/05/27 09:12:35;;;;;;;4.47;4.08;;;;;;;28.42;44.81;100287.02;1780344;79;21097;-66
2021/05/27 09:15:18;;;;;;;5.55;3.95;;;;;;;28.60;43.82;100289.72;1784655;79;21624;-68
2021/05/27 09:17:51;;;;;;;5.85;3.75;;;;;;;28.69;43.09;100287.20;1763599;79;21089;-68
2021/05/27 09:20:25;;;;;;;3.72;3.42;;;;;;;28.67;42.51;100289.25;1780125;79;21714;-67
2021/05/27 09:23:21;;;;;;;4.12;3.80;;;;;;;28.63;42.76;100297.37;1777210;78;20995;-65
2021/05/27 09:25:58;;;;;;;4.35;3.92;;;;;;;28.61;42.60;100288.19;1779421;79;21167;-63
2021/05/27 09:28:27;;;;;;;4.87;3.87;;;;;;;28.63;42.45;100287.98;1771649;78;20991;-68
2021/05/27 09:31:02;;;;;;;5.50;3.95;;;;;;;28.67;42.76;100289.25;1781585;78;21020;-65
2021/05/27 09:33:36;;;;;;;5.97;4.00;;;;;;;28.70;41.82;100286.18;1716737;81;21093;-66
2021/05/27 09:36:09;;;;;;;4.17;3.67;;;;;;;28.40;41.47;100286.38;1780951;78;20996;-71
2021/05/27 09:38:43;;;;;;;9.60;3.85;;;;;;;28.16;42.17;100290.31;1776640;78;21060;-68
2021/05/27 09:41:33;;;;;;;4.97;3.62;;;;;;;28.06;43.38;100293.00;1775190;79;21009;-65
2021/05/27 09:44:10;;;;;;;4.37;3.98;;;;;;;28.00;43.24;100284.39;1775404;78;20972;-67
2021/05/27 09:46:54;;;;;;;4.12;3.72;;;;;;;27.86;42.02;100276.27;1778604;78;21855;-70
2021/05/27 09:49:26;;;;;;;4.65;4.25;;;;;;;27.68;42.86;100270.53;1718641;81;20966;-68
2021/05/27 09:51:56;;;;;;;4.75;4.33;;;;;;;27.51;43.27;100273.95;1734426;80;21106;-65
2021/05/27 09:54:26;;;;;;;6.05;4.25;;;;;;;27.32;44.15;100275.06;1730483;82;21124;-70
2021/05/27 09:56:53;;;;;;;5.83;4.30;;;;;;;27.17;44.12;100272.44;1722378;82;21571;-66
2021/05/27 09:59:21;;;;;;;36.75;6.33;;;;;;;27.06;44.36;100266.23;1779508;79;21069;-69
2021/05/27 10:02:15;;;;;;;6.53;4.58;;;;;;;26.93;45.05;100272.20;1781623;79;20995;-67
2021/05/27 10:04:59;;;;;;;5.42;4.37;;;;;;;26.84;44.95;100267.46;1785406;79;21581;-69
2021/05/27 10:07:44;;;;;;;4.37;3.90;;;;;;;26.81;45.19;100262.98;1784864;79;20988;-65
2021/05/27 10:10:18;;;;;;;6.53;4.65;;;;;;;26.82;45.94;100262.81;1803527;79;20971;-65
2021/05/27 10:15:35;;;;;;;6.45;4.37;;;;;;;26.77;44.91;100261.73;1824508;78;21557;-65
2021/05/27 10:18:04;;;;;;;5.83;5.20;;;;;;;26.43;44.96;100258.25;1824901;77;21125;-65
2021/05/27 10:20:33;;;;;;;6.05;4.97;;;;;;;26.14;45.87;100263.03;1825712;78;21027;-65
2021/05/27 10:23:01;;;;;;;5.47;4.25;;;;;;;26.06;46.52;100265.26;1825765;78;21569;-66
2021/05/27 10:25:32;;;;;;;7.00;4.53;;;;;;;26.13;47.07;100259.53;1825834;77;21439;-65
2021/05/27 10:28:09;;;;;;;5.35;4.37;;;;;;;26.27;47.04;100253.07;1826003;77;20892;-65
2021/05/27 10:31:00;;;;;;;10.95;4.75;;;;;;;26.38;45.97;100248.66;1825022;77;20911;-66
2021/05/27 10:33:39;;;;;;;6.22;4.50;;;;;;;26.29;46.15;100249.21;1813824;78;20956;-64
2021/05/27 10:36:11;;;;;;;13.40;5.55;;;;;;;26.12;47.22;100258.38;1833007;77;20972;-65
2021/05/27 10:38:50;;;;;;;4.75;4.42;;;;;;;26.11;47.15;100248.70;1835885;77;20912;-66
2021/05/27 10:41:32;;;;;;;5.35;4.42;;;;;;;26.18;47.07;100249.14;1832436;77;20911;-65
2021/05/27 10:44:06;;;;;;;4.87;4.33;;;;;;;26.27;47.33;100250.40;1821644;77;21019;-65
2021/05/27 10:46:47;;;;;;;10.15;4.67;;;;;;;26.33;46.86;100239.86;1830580;77;20953;-65
2021/05/27 10:49:36;;;;;;;5.80;4.90;;;;;;;26.33;45.49;100237.19;1836564;77;20883;-65
2021/05/27 10:52:33;;;;;;;4.80;4.40;;;;;;;26.21;45.87;100241.27;1844455;77;21556;-66
2021/05/27 10:55:00;;;;;;;4.97;4.55;;;;;;;26.13;46.33;100238.68;1829635;77;21019;-64
2021/05/27 10:57:46;;;;;;;6.08;4.97;;;;;;;26.08;47.02;100249.06;1823769;77;20880;-65
2021/05/27 11:00:37;;;;;;;5.65;4.62;;;;;;;26.08;47.11;100244.56;1838051;77;20919;-64
2021/05/27 11:03:46;;;;;;;5.33;4.53;;;;;;;26.08;47.18;100247.23;1822046;77;20991;-65
2021/05/27 11:06:28;;;;;;;6.83;4.92;;;;;;;26.07;47.62;100241.56;1806512;77;21439;-65
2021/05/27 11:09:14;;;;;;;5.08;4.60;;;;;;;26.13;48.01;100244.02;1832181;77;21011;-65
2021/05/27 11:11:50;;;;;;;5.92;5.28;;;;;;;26.22;47.81;100238.42;1833318;77;20960;-63
2021/05/27 11:14:42;;;;;;;6.00;4.67;;;;;;;26.33;47.17;100226.51;1791117;77;20976;-64
2021/05/27 11:17:16;;;;;;;5.45;4.95;;;;;;;26.42;46.94;100224.05;1798864;79;21047;-64
2021/05/27 11:20:00;;;;;;;5.25;4.80;;;;;;;26.51;47.40;100210.93;1807203;79;20926;-65
2021/05/27 11:22:47;;;;;;;6.05;4.92;;;;;;;26.64;46.83;100214.80;1795568;79;21020;-66
2021/05/27 11:25:25;;;;;;;5.30;4.80;;;;;;;26.73;47.08;100217.19;1797502;79;21795;-67
2021/05/27 11:28:04;;;;;;;6.58;5.35;;;;;;;26.81;47.07;100217.57;1796665;79;21583;-65
2021/05/27 11:30:41;;;;;;;5.50;5.00;;;;;;;26.86;46.85;100207.98;1792827;79;21256;-66
2021/05/27 11:33:26;;;;;;;6.25;4.78;;;;;;;26.88;46.80;100217.98;1751095;80;21066;-65
2021/05/27 11:35:55;;;;;;;5.53;5.03;;;;;;;26.87;46.30;100214.16;1724232;82;20963;-66
2021/05/27 11:38:32;;;;;;;5.42;5.03;;;;;;;26.79;46.56;100217.75;1753092;81;21038;-66
2021/05/27 11:41:10;;;;;;;7.65;5.65;;;;;;;26.68;46.44;100214.75;1728510;82;20971;-68
2021/05/27 11:43:53;;;;;;;7.17;4.92;;;;;;;26.52;46.45;100207.25;1751483;81;21018;-64
2021/05/27 11:46:25;;;;;;;6.20;5.20;;;;;;;26.41;45.76;100203.70;1741062;81;20991;-68
2021/05/27 11:51:33;;;;;;;6.00;5.40;;;;;;;26.39;46.74;100204.92;1738687;81;21765;-68
2021/05/27 11:54:13;;;;;;;6.78;4.90;;;;;;;26.43;46.57;100198.17;1744724;81;20947;-67
2021/05/27 11:56:52;;;;;;;7.87;5.78;;;;;;;26.42;46.39;100196.01;1742569;80;20975;-70
2021/05/27 11:59:26;;;;;;;6.00;5.47;;;;;;;26.39;46.66;100192.91;1753271;80;21010;-67
2021/05/27 12:01:57;;;;;;;10.05;5.87;;;;;;;26.32;47.01;100197.32;1746416;81;21517;-68
2021/05/27 12:04:30;;;;;;;7.87;5.65;;;;;;;26.30;47.09;100193.47;1739870;80;21652;-71
2021/05/27 12:07:11;;;;;;;6.40;5.80;;;;;;;26.33;47.35;100192.30;1740004;80;20916;-70
2021/05/27 12:09:49;;;;;;;6.97;5.35;;;;;;;26.41;47.59;100187.67;1740457;81;21026;-70
2021/05/27 12:12:29;;;;;;;6.60;5.65;;;;;;;26.48;47.74;100183.26;1740287;80;20947;-66
2021/05/27 12:17:41;;;;;;;5.55;5.05;;;;;;;26.70;46.79;100179.33;1759612;78;21532;-67
2021/05/27 12:20:13;;;;;;;6.70;5.58;;;;;;;26.76;46.79;100175.41;1740085;80;21428;-69
2021/05/27 12:23:04;;;;;;;7.17;5.85;;;;;;;26.79;46.71;100172.87;1782572;79;20989;-68
2021/05/27 12:25:34;;;;;;;6.72;5.83;;;;;;;26.83;46.82;100167.45;1782172;78;20995;-70
2021/05/27 12:28:22;;;;;;;6.37;5.78;;;;;;;26.84;46.67;100174.45;1790054;79;20983;-66
2021/05/27 12:30:58;;;;;;;6.00;5.40;;;;;;;26.84;46.61;100170.44;1787095;78;21038;-67
2021/05/27 12:33:36;;;;;;;7.78;6.37;;;;;;;26.81;46.73;100168.14;1787487;79;20980;-67
2021/05/27 12:36:05;;;;;;;10.58;6.10;;;;;;;26.72;46.96;100171.96;1769289;80;21510;-65
2021/05/27 12:38:33;;;;;;;6.70;6.10;;;;;;;26.62;47.15;100176.25;1739912;81;20944;-65
2021/05/27 12:41:04;;;;;;;6.05;5.55;;;;;;;26.49;47.28;100165.39;1762096;79;20992;-64
2021/05/27 12:43:43;;;;;;;6.28;5.70;;;;;;;26.39;46.88;100162.20;1760142;79;22298;-63
2021/05/27 12:46:11;;;;;;;9.85;5.60;;;;;;;26.27;47.35;100154.30;1754170;81;21010;-66
2021/05/27 12:48:57;;;;;;;6.85;6.22;;;;;;;26.14;47.92;100146.92;1759426;79;21632;-65
2021/05/27 12:51:32;;;;;;;6.85;6.15;;;;;;;26.03;48.56;100144.70;1766025;79;21015;-70
2021/05/27 12:53:59;;;;;;;6.22;5.72;;;;;;;25.90;48.59;100138.69;1774507;79;21078;-68
2021/05/27 12:56:30;;;;;;;7.83;5.85;;;;;;;25.76;48.52;100142.16;1770318;79;21604;-67
2021/05/27 12:59:11;;;;;;;6.75;6.10;;;;;;;25.63;48.96;100140.06;1773471;80;21526;-67
2021/05/27 13:01:50;;;;;;;11.40;6.10;;;;;;;25.58;49.40;100143.80;1774904;80;21424;-67
2021/05/27 13:04:32;;;;;;;7.65;6.65;;;;;;;25.61;49.48;100138.08;1733154;79;21458;-71
2021/05/27 13:07:09;;;;;;;;;;;;;;;25.62;49.62;100135.73;1757984;79;21054;-65
2021/05/27 13:09:58;;;;;;;7.30;5.62;;;;;;;25.64;49.78;100140.42;1759430;80;20226;-66
2021/05/27 13:12:26;;;;;;;5.80;5.28;;;;;;;25.66;49.86;100141.07;1761482;79;20936;-66
2021/05/27 13:15:10;;;;;;;6.70;5.72;;;;;;;25.71;49.06;100133.36;1768963;80;20964;-65
2021/05/27 13:17:38;;;;;;;6.10;5.35;;;;;;;25.74;48.98;100130.84;1829460;78;21402;-66
2021/05/27 13:20:06;;;;;;;5.53;4.95;;;;;;;25.74;49.06;100126.33;1828107;77;21526;-68
2021/05/27 13:22:34;;;;;;;6.33;5.60;;;;;;;25.74;49.00;100125.00;1824425;77;21622;-65
2021/05/27 13:25:10;;;;;;;6.30;5.70;;;;;;;25.73;48.62;100123.34;1829539;77;21006;-69
2021/05/27 13:27:50;;;;;;;8.33;5.92;;;;;;;25.75;48.49;100123.16;1828900;77;20868;-67
2021/05/27 13:30:28;;;;;;;5.72;5.22;;;;;;;25.75;48.73;100115.98;1819012;77;20971;-67
2021/05/27 13:33:09;;;;;;;5.92;5.40;;;;;;;25.76;49.17;100118.97;1813378;77;20979;-69
2021/05/27 13:35:36;;;;;;;8.40;5.67;;;;;;;25.72;49.47;100107.52;1813119;77;20989;-71
2021/05/27 13:38:04;;;;;;;6.42;5.85;;;;;;;25.68;49.37;100106.22;1820056;77;20960;-68
2021/05/27 13:40:34;;;;;;;7.10;6.00;;;;;;;25.63;49.14;100106.73;1825957;77;20915;-70
2021/05/27 13:43:05;;;;;;;6.95;5.53;;;;;;;25.54;48.77;100115.33;1792476;77;21601;-70
2021/05/27 13:45:33;;;;;;;8.48;6.10;;;;;;;25.39;49.75;100118.45;1844741;77;20980;-69
2021/05/27 13:48:01;;;;;;;7.67;6.50;;;;;;;25.22;50.22;100119.08;1804684;77;21611;-65
2021/05/27 13:50:32;;;;;;;7.97;5.90;;;;;;;25.08;50.59;100120.38;1819911;77;21057;-66
2021/05/27 13:53:04;;;;;;;6.53;5.87;;;;;;;24.96;51.07;100120.45;1826733;77;20974;-66
2021/05/27 13:55:38;;;;;;;7.12;6.42;;;;;;;24.84;51.58;100114.66;1828389;77;20979;-68
2021/05/27 13:58:06;;;;;;;7.67;6.78;;;;;;;24.74;52.18;100116.75;1833300;77;21434;-66
2021/05/27 14:00:34;;;;;;;9.50;6.83;;;;;;;24.67;52.90;100124.60;1838828;77;20926;-67
2021/05/27 14:03:01;;;;;;;7.33;6.53;;;;;;;24.59;53.20;100123.31;1821355;77;20992;-68
2021/05/27 14:05:28;;;;;;;8.28;6.55;;;;;;;24.48;53.55;100115.20;1782296;77;21576;-68
